Impacts METAR Board
IDs:

KAUS - Austin/Bergstrom Int, TX, US

Updated at: 0100 UTC 01 Nov 2020
Potential Impact None Slight Moderate High
Time 31/13Z 31/14Z 31/15Z 31/16Z 31/17Z 31/18Z 31/19Z 31/20Z 31/21Z 31/22Z 31/23Z 01/00Z 01/01Z
Temp36 45 54 64 69 71 74 77 77 78 76 64 57
Dewpt33 40 43 44 41 41 39 40 39 40 41 43 46
Altim30.22 30.23 30.24 30.24 30.22 30.19 30.15 30.12 30.09 30.08 30.08 30.10 30.12
VIS10 10 10 10 10 10 10 10 10 10 10 10 10
CIG-- -- -- -- -- -- -- -- -- -- -- -- --
CoverFEWFEWFEWFEWFEWFEWFEWFEWFEWFEWFEWFEWFEW
FltCatVFRVFRVFRVFRVFRVFRVFRVFRVFRVFRVFRVFRVFR
WXBCFGBCFG----------------------
WDir00019019018022019016015016000
WSpd0 0 0 7 9 9 7 5 6 7 7 0 0
WGst-- -- -- -- -- -- -- -- -- -- -- -- --
Raw hourly METARs
KAUS 311253Z 00000KT 10SM BCFG FEW250 02/01 A3022 RMK AO2 SLP239 T00220006
KAUS 311353Z 00000KT 10SM BCFG FEW250 07/04 A3023 RMK AO2 SLP241 T00720044
KAUS 311453Z 00000KT 10SM FEW250 12/06 A3024 RMK AO2 SLP243 T01220061 53008
KAUS 311553Z 19007KT 10SM FEW250 18/07 A3024 RMK AO2 SLP239 T01780067
KAUS 311653Z 19009KT 10SM FEW250 21/05 A3022 RMK AO2 SLP231 T02060050
KAUS 311753Z 18009KT 160V220 10SM FEW250 22/05 A3019 RMK AO2 SLP223 T02170050 10222 20017 58016
KAUS 311853Z 22007KT 190V250 10SM FEW250 23/04 A3015 RMK AO2 SLP208 T02330039
KAUS 311953Z 19005KT 10SM FEW200 FEW250 25/04 A3012 RMK AO2 SLP199 T02500044
KAUS 312053Z 16006KT 10SM FEW200 FEW250 25/04 A3009 RMK AO2 SLP189 T02500039 56034
KAUS 312153Z 15007KT 10SM FEW200 FEW250 26/04 A3008 RMK AO2 SLP185 T02560044
KAUS 312253Z 16007KT 10SM FEW200 FEW250 24/05 A3008 RMK AO2 SLP185 T02440050
KAUS 312353Z 00000KT 10SM FEW200 FEW250 18/06 A3010 RMK AO2 SLP193 T01780061 10256 20178 53002
KAUS 010053Z 00000KT 10SM FEW200 14/08 A3012 RMK AO2 SLP201 T01390078